Time;durP1;ratioP1;P1;durP2;ratioP2;P2;SDS_P1;SDS_P2;PMS_P1;PMS_P2;Temp;Humidity;BMP_temperature;BMP_pressure;BME280_temperature;BME280_humidity;BME280_pressure;Samples;Min_cycle;Max_cycle;Signal;HPM_P1;HPM_P2
2022/11/04 00:01:36;;;;;;;136.32;67.75;;;8.30;99.90;;;;;;5022352;28;20060;-66
2022/11/04 00:04:02;;;;;;;142.35;67.15;;;8.10;99.90;;;;;;5054182;28;20036;-66
2022/11/04 00:06:28;;;;;;;131.77;65.05;;;8.00;99.90;;;;;;5053984;28;20029;-66
2022/11/04 00:08:56;;;;;;;133.13;68.47;;;8.00;99.90;;;;;;5054056;28;20025;-66
2022/11/04 00:14:09;;;;;;;146.80;73.97;;;7.90;99.90;;;;;;5053186;28;20067;-66
2022/11/04 00:19:20;;;;;;;134.57;66.80;;;7.70;99.90;;;;;;5058100;28;20033;-66
2022/11/04 00:30:05;;;;;;;144.07;71.85;;;7.70;99.90;;;;;;5058059;28;20082;-66
2022/11/04 00:35:16;;;;;;;140.90;68.57;;;7.70;99.90;;;;;;5057825;28;20147;-66
2022/11/04 00:37:43;;;;;;;135.50;69.68;;;7.60;99.90;;;;;;5054956;28;20391;-66
2022/11/04 00:40:11;;;;;;;140.85;70.20;;;7.60;99.90;;;;;;5057793;28;20031;-66
2022/11/04 00:42:37;;;;;;;147.70;71.65;;;7.60;99.90;;;;;;5057657;28;20063;-66
2022/11/04 00:45:04;;;;;;;148.90;77.07;;;7.70;99.90;;;;;;5057356;28;20029;-66
2022/11/04 00:47:30;;;;;;;145.50;76.60;;;7.60;99.90;;;;;;5039744;28;20035;-66
2022/11/04 00:49:55;;;;;;;129.10;66.90;;;7.70;99.90;;;;;;5057448;28;20084;-66
2022/11/04 00:52:21;;;;;;;128.35;68.05;;;7.70;99.90;;;;;;5057731;28;20435;-66
2022/11/04 00:54:47;;;;;;;123.45;64.88;;;7.80;99.90;;;;;;5057457;28;20467;-66
2022/11/04 00:57:14;;;;;;;140.27;68.45;;;7.80;99.90;;;;;;5057302;28;20036;-65
2022/11/04 00:59:40;;;;;;;117.57;62.17;;;7.90;99.90;;;;;;5057197;28;20025;-66
2022/11/04 01:02:08;;;;;;;128.70;66.47;;;7.80;99.90;;;;;;5046026;28;20562;-66
2022/11/04 01:04:34;;;;;;;150.52;71.65;;;7.80;99.90;;;;;;5037075;28;20535;-66
2022/11/04 01:07:00;;;;;;;142.88;66.95;;;7.70;99.90;;;;;;5037458;28;20383;-66
2022/11/04 01:09:27;;;;;;;136.93;69.00;;;7.70;99.90;;;;;;5037099;28;20415;-66
2022/11/04 01:11:53;;;;;;;133.35;65.75;;;7.90;99.90;;;;;;5036451;28;20044;-66
2022/11/04 01:14:19;;;;;;;125.88;64.55;;;7.70;99.90;;;;;;5032258;28;20026;-66
2022/11/04 01:16:45;;;;;;;115.78;61.42;;;7.50;99.90;;;;;;5037021;28;20041;-66
2022/11/04 01:19:11;;;;;;;122.32;61.08;;;7.40;99.90;;;;;;5036795;28;20529;-66
2022/11/04 01:21:37;;;;;;;138.40;67.03;;;7.40;99.90;;;;;;5036844;28;20049;-66
2022/11/04 01:24:03;;;;;;;120.78;64.53;;;7.40;99.90;;;;;;5035886;28;20386;-66
2022/11/04 01:26:29;;;;;;;129.75;69.88;;;7.40;99.90;;;;;;5036749;28;20048;-66
2022/11/04 01:28:57;;;;;;;135.57;69.93;;;7.50;99.90;;;;;;5056713;28;20060;-66
2022/11/04 01:31:28;;;;;;;126.18;66.40;;;7.60;99.90;;;;;;5056698;28;20025;-66
2022/11/04 01:33:55;;;;;;;131.05;66.20;;;7.50;99.90;;;;;;5056369;28;20083;-66
2022/11/04 01:36:24;;;;;;;158.20;72.90;;;7.80;99.90;;;;;;5056625;28;20027;-66
2022/11/04 01:38:50;;;;;;;134.52;65.97;;;7.80;99.90;;;;;;5043403;28;20035;-66
2022/11/04 01:41:23;;;;;;;134.77;65.32;;;7.90;99.90;;;;;;5036361;28;20033;-66
2022/11/04 01:43:55;;;;;;;114.70;57.75;;;7.90;99.90;;;;;;5036485;28;20030;-66
2022/11/04 01:46:41;;;;;;;115.63;58.15;;;7.90;99.90;;;;;;5036206;28;20492;-66
2022/11/04 01:49:24;;;;;;;125.55;60.55;;;7.70;99.90;;;;;;5018641;28;20033;-66
2022/11/04 01:51:56;;;;;;;132.60;63.65;;;7.50;99.90;;;;;;5036852;28;20040;-66
2022/11/04 01:54:22;;;;;;;122.68;60.13;;;7.50;99.90;;;;;;5036141;28;20083;-66
2022/11/04 01:56:48;;;;;;;122.13;58.90;;;7.50;99.90;;;;;;5036289;28;20104;-66
2022/11/04 01:59:37;;;;;;;120.07;58.20;;;7.60;99.90;;;;;;5036265;28;20037;-66
2022/11/04 02:02:03;;;;;;;124.75;60.22;;;7.50;99.90;;;;;;5022109;28;20045;-66
2022/11/04 02:04:30;;;;;;;127.07;60.45;;;7.50;99.90;;;;;;5018279;28;20033;-66
2022/11/04 02:07:01;;;;;;;133.27;63.58;;;7.60;99.90;;;;;;5036190;28;20502;-66
2022/11/04 02:09:30;;;;;;;134.82;61.47;;;7.60;99.90;;;;;;5035822;28;20037;-66
2022/11/04 02:14:41;;;;;;;118.70;59.88;;;7.60;99.90;;;;;;5016057;28;20017;-66
2022/11/04 02:17:31;;;;;;;119.88;60.00;;;7.50;99.90;;;;;;5015803;28;20466;-66
2022/11/04 02:20:22;;;;;;;106.87;55.30;;;7.50;99.90;;;;;;5016181;28;20026;-66
2022/11/04 02:23:20;;;;;;;109.38;54.13;;;7.50;99.90;;;;;;5015881;28;20475;-66
2022/11/04 02:26:14;;;;;;;104.05;52.53;;;7.60;99.90;;;;;;5015041;28;20064;-66
2022/11/04 02:29:18;;;;;;;97.15;50.55;;;7.60;99.90;;;;;;5015792;28;20113;-66
2022/11/04 02:31:47;;;;;;;96.90;50.35;;;7.60;99.90;;;;;;5003476;28;20504;-66
2022/11/04 02:34:47;;;;;;;96.82;48.33;;;7.60;99.90;;;;;;5015590;28;20490;-66
2022/11/04 02:37:20;;;;;;;97.13;51.03;;;7.70;99.90;;;;;;5015591;28;20025;-66
2022/11/04 02:39:59;;;;;;;124.07;56.83;;;7.80;99.90;;;;;;5015718;28;20041;-66
2022/11/04 02:42:50;;;;;;;110.95;52.10;;;7.90;99.90;;;;;;5015507;28;20033;-66
2022/11/04 02:45:38;;;;;;;105.63;52.75;;;7.80;99.90;;;;;;5015742;28;20033;-65
2022/11/04 02:48:12;;;;;;;94.07;45.85;;;7.80;99.90;;;;;;5015331;28;20369;-66
2022/11/04 02:51:00;;;;;;;91.88;46.80;;;7.70;99.90;;;;;;5015475;28;20022;-66
2022/11/04 02:53:31;;;;;;;105.25;50.65;;;7.50;99.90;;;;;;5015369;28;20518;-66
2022/11/04 02:55:59;;;;;;;103.75;50.72;;;7.50;99.90;;;;;;5015516;28;20018;-66
2022/11/04 02:58:31;;;;;;;94.32;48.65;;;7.50;99.90;;;;;;5015176;28;20388;-66
2022/11/04 03:01:00;;;;;;;91.05;45.95;;;7.50;99.90;;;;;;5023400;28;20029;-66
2022/11/04 03:03:31;;;;;;;103.28;47.90;;;7.50;99.90;;;;;;5034784;28;20040;-66
2022/11/04 03:05:59;;;;;;;100.90;50.38;;;7.40;99.90;;;;;;5035007;28;20033;-66
2022/11/04 03:08:32;;;;;;;100.13;47.83;;;7.40;99.90;;;;;;5017177;28;20495;-66
2022/11/04 03:11:08;;;;;;;94.28;46.10;;;7.40;99.90;;;;;;5035262;28;20422;-66
2022/11/04 03:13:44;;;;;;;95.50;48.25;;;7.50;99.90;;;;;;5034305;28;20025;-66
2022/11/04 03:16:16;;;;;;;98.78;48.58;;;7.60;99.90;;;;;;5034893;28;20024;-66
2022/11/04 03:18:56;;;;;;;92.90;47.10;;;7.70;99.90;;;;;;5034820;28;20061;-66
2022/11/04 03:21:25;;;;;;;95.90;47.42;;;7.80;99.90;;;;;;5034530;28;20033;-66
2022/11/04 03:23:51;;;;;;;88.38;46.83;;;7.90;99.90;;;;;;5034531;28;20034;-66
2022/11/04 03:26:49;;;;;;;80.03;43.53;;;7.90;99.90;;;;;;5034604;28;20081;-66
2022/11/04 03:29:35;;;;;;;82.68;44.80;;;8.00;99.90;;;;;;5034584;28;20106;-66
2022/11/04 03:32:10;;;;;;;79.75;42.25;;;8.00;99.90;;;;;;5034701;28;20033;-66
2022/11/04 03:34:37;;;;;;;76.65;42.03;;;8.00;99.90;;;;;;5034256;28;20545;-66
2022/11/04 03:37:03;;;;;;;79.45;41.53;;;8.00;99.90;;;;;;5034503;28;20072;-66
2022/11/04 03:39:29;;;;;;;75.45;40.95;;;7.90;99.90;;;;;;5034409;28;20054;-66
2022/11/04 03:41:57;;;;;;;72.40;39.15;;;7.90;99.90;;;;;;5034065;28;20120;-66
2022/11/04 03:44:24;;;;;;;81.00;41.10;;;7.90;99.90;;;;;;5034484;28;20112;-66
2022/11/04 03:46:53;;;;;;;75.05;39.38;;;7.90;99.90;;;;;;5033865;28;20025;-66
2022/11/04 03:49:22;;;;;;;74.72;40.28;;;8.10;99.90;;;;;;5034228;28;20120;-66
2022/11/04 03:51:49;;;;;;;75.97;39.60;;;8.20;99.90;;;;;;5034284;28;20030;-66
2022/11/04 03:54:15;;;;;;;75.97;38.67;;;8.30;99.90;;;;;;5034345;28;20093;-66
2022/11/04 03:57:03;;;;;;;71.45;37.15;;;8.40;99.90;;;;;;5034068;28;20464;-66
2022/11/04 03:59:52;;;;;;;67.30;34.58;;;8.50;99.90;;;;;;5034273;28;20025;-66
2022/11/04 04:02:32;;;;;;;63.65;34.55;;;8.60;99.90;;;;;;5034585;28;20123;-66
2022/11/04 04:05:01;;;;;;;65.13;32.63;;;8.60;99.90;;;;;;5054066;28;20041;-66
2022/11/04 04:07:33;;;;;;;68.97;33.42;;;8.70;99.90;;;;;;5054051;28;20040;-66
2022/11/04 04:10:02;;;;;;;64.95;34.38;;;8.70;99.90;;;;;;5053928;28;20422;-66
2022/11/04 04:12:37;;;;;;;66.88;35.75;;;8.60;99.90;;;;;;5049937;28;20605;-66
2022/11/04 04:15:17;;;;;;;63.88;33.25;;;8.60;99.90;;;;;;5016395;28;20037;-66
2022/11/04 04:17:51;;;;;;;68.43;34.95;;;8.60;99.90;;;;;;5033935;28;20030;-66
2022/11/04 04:20:24;;;;;;;79.15;39.70;;;8.80;99.90;;;;;;5034126;28;20120;-66
2022/11/04 04:22:57;;;;;;;72.13;38.90;;;8.80;99.90;;;;;;5033960;28;20061;-66
2022/11/04 04:28:14;;;;;;;66.20;35.20;;;8.90;99.90;;;;;;5033937;28;20060;-66
2022/11/04 04:30:42;;;;;;;57.63;33.70;;;8.90;99.90;;;;;;5034115;28;20033;-66
2022/11/04 04:33:12;;;;;;;64.80;34.95;;;9.00;99.90;;;;;;5033699;28;20471;-66
2022/11/04 04:35:46;;;;;;;65.65;33.33;;;9.00;99.90;;;;;;5033912;28;20386;-66
2022/11/04 04:46:45;;;;;;;67.05;34.45;;;9.10;99.90;;;;;;5033639;28;20087;-66
2022/11/04 04:49:11;;;;;;;71.97;34.47;;;9.10;99.90;;;;;;5033818;28;20068;-66
2022/11/04 04:51:44;;;;;;;78.47;36.90;;;9.20;99.90;;;;;;5033828;28;20030;-66
2022/11/04 04:54:10;;;;;;;72.15;34.63;;;9.20;99.90;;;;;;5033719;28;20034;-66
2022/11/04 04:56:36;;;;;;;74.07;37.05;;;9.00;99.90;;;;;;5033844;28;20026;-66
2022/11/04 04:59:02;;;;;;;69.38;34.35;;;9.00;99.90;;;;;;5034351;28;20471;-66
2022/11/04 05:01:28;;;;;;;69.18;35.58;;;8.90;99.90;;;;;;5044379;28;20557;-66
2022/11/04 05:03:54;;;;;;;62.80;33.33;;;8.80;99.90;;;;;;5057355;28;20072;-66
2022/11/04 05:06:20;;;;;;;70.72;38.25;;;9.00;99.90;;;;;;5057032;28;20029;-66
2022/11/04 05:08:45;;;;;;;74.75;36.38;;;9.10;99.90;;;;;;5057155;28;20029;-66
2022/11/04 05:11:12;;;;;;;81.53;39.95;;;9.10;99.90;;;;;;5057122;28;20476;-66
2022/11/04 05:13:38;;;;;;;83.15;42.25;;;9.20;99.90;;;;;;5038233;28;20364;-66
2022/11/04 05:16:09;;;;;;;88.32;42.25;;;9.10;99.90;;;;;;5036902;28;20040;-66
2022/11/04 05:18:35;;;;;;;91.53;45.17;;;9.10;99.90;;;;;;5036983;28;20029;-66
2022/11/04 05:21:06;;;;;;;94.00;43.78;;;9.00;99.90;;;;;;5036869;28;20296;-66
2022/11/04 05:23:34;;;;;;;86.38;42.42;;;9.20;99.90;;;;;;5036800;28;20045;-66
2022/11/04 05:26:00;;;;;;;78.38;38.60;;;9.30;99.90;;;;;;5036766;28;20029;-66
2022/11/04 05:28:26;;;;;;;70.72;36.22;;;9.30;99.90;;;;;;5036655;28;20048;-66
2022/11/04 05:30:52;;;;;;;72.63;37.05;;;9.10;99.90;;;;;;5036731;28;20037;-66
2022/11/04 05:33:18;;;;;;;63.55;33.30;;;9.20;99.90;;;;;;5036699;28;20022;-66
2022/11/04 05:35:44;;;;;;;75.38;37.10;;;9.40;99.90;;;;;;5036398;28;20025;-66
2022/11/04 05:38:10;;;;;;;69.85;36.65;;;9.40;99.90;;;;;;5036606;28;20037;-66
2022/11/04 05:40:35;;;;;;;79.82;38.72;;;9.40;99.90;;;;;;5036581;28;20109;-66
2022/11/04 05:43:02;;;;;;;88.93;45.35;;;9.30;99.90;;;;;;5036398;28;20034;-66
2022/11/04 05:45:28;;;;;;;77.80;43.08;;;9.40;99.90;;;;;;5036341;28;20029;-66
2022/11/04 05:48:02;;;;;;;77.50;42.45;;;9.40;99.90;;;;;;5018612;28;20562;-66
2022/11/04 05:50:30;;;;;;;87.25;43.92;;;9.50;99.90;;;;;;5036104;28;20051;-66
2022/11/04 05:53:00;;;;;;;80.35;38.10;;;9.60;99.90;;;;;;5036369;28;20029;-66
2022/11/04 05:55:26;;;;;;;81.72;38.75;;;9.50;99.90;;;;;;5036352;28;20104;-66
2022/11/04 05:57:52;;;;;;;72.35;36.05;;;9.20;99.90;;;;;;5036167;28;20121;-66
2022/11/04 06:00:18;;;;;;;79.63;36.55;;;9.30;99.90;;;;;;5036203;28;20022;-66
2022/11/04 06:02:45;;;;;;;76.25;38.00;;;9.50;99.90;;;;;;5054004;28;20049;-66
2022/11/04 06:05:10;;;;;;;79.38;39.30;;;9.50;99.90;;;;;;5055878;28;20047;-66
2022/11/04 06:07:36;;;;;;;74.72;38.97;;;9.90;99.90;;;;;;5055950;28;20629;-66
2022/11/04 06:10:03;;;;;;;79.30;38.25;;;10.30;99.90;;;;;;5055353;28;20025;-66
2022/11/04 06:12:29;;;;;;;98.20;41.75;;;10.10;99.90;;;;;;5051319;28;20126;-66
2022/11/04 06:14:55;;;;;;;96.53;40.70;;;10.10;99.90;;;;;;5018093;28;20457;-66
2022/11/04 06:17:21;;;;;;;99.50;41.60;;;10.20;99.90;;;;;;5035749;28;20041;-66
2022/11/04 06:19:48;;;;;;;98.32;43.72;;;10.20;99.90;;;;;;5035753;28;20071;-66
2022/11/04 06:22:16;;;;;;;103.55;47.92;;;10.10;99.90;;;;;;5028472;28;20437;-66
2022/11/04 06:24:42;;;;;;;87.47;42.97;;;10.00;99.90;;;;;;5033939;28;20033;-66
2022/11/04 06:27:09;;;;;;;91.30;44.40;;;10.10;99.90;;;;;;5024872;28;20116;-66
2022/11/04 06:29:39;;;;;;;102.60;47.90;;;9.90;99.90;;;;;;5035415;28;20028;-66
2022/11/04 06:32:09;;;;;;;101.00;54.53;;;9.90;99.90;;;;;;5035677;28;20025;-66
2022/11/04 06:34:35;;;;;;;120.72;51.72;;;10.10;99.90;;;;;;5033847;28;20509;-66
2022/11/04 06:37:01;;;;;;;105.70;51.78;;;10.20;99.90;;;;;;5031232;28;20029;-66
2022/11/04 06:39:27;;;;;;;122.22;53.38;;;10.20;99.90;;;;;;5036945;28;20056;-66
2022/11/04 06:41:53;;;;;;;141.80;58.33;;;10.30;99.90;;;;;;5033267;28;20017;-66
2022/11/04 06:44:19;;;;;;;144.38;57.97;;;10.20;99.90;;;;;;5032249;28;20025;-66
2022/11/04 06:46:45;;;;;;;143.93;58.90;;;10.30;99.90;;;;;;5042998;28;20029;-66
2022/11/04 06:49:18;;;;;;;189.85;61.20;;;10.40;99.90;;;;;;5034885;28;20100;-66
2022/11/04 06:51:48;;;;;;;161.75;69.03;;;10.30;99.90;;;;;;5025098;28;20083;-66
2022/11/04 06:54:15;;;;;;;123.93;56.13;;;10.40;99.90;;;;;;5034420;28;20022;-66
2022/11/04 06:56:42;;;;;;;130.77;58.30;;;10.50;99.90;;;;;;5034228;28;20021;-66
2022/11/04 06:59:14;;;;;;;120.53;55.05;;;10.60;99.90;;;;;;5034191;28;20048;-66
2022/11/04 07:01:40;;;;;;;148.98;63.33;;;10.60;99.90;;;;;;5039615;28;20392;-66
2022/11/04 07:04:08;;;;;;;192.48;67.05;;;10.70;99.90;;;;;;5058927;28;20429;-66
2022/11/04 07:06:49;;;;;;;144.98;62.03;;;10.80;99.90;;;;;;5057255;28;20027;-66
2022/11/04 07:09:15;;;;;;;;;;;10.90;99.90;;;;;;5033083;28;20033;-66
2022/11/04 07:11:56;;;;;;;130.80;55.03;;;10.90;99.90;;;;;;5053705;28;20271;-66
2022/11/04 07:14:26;;;;;;;130.13;50.65;;;11.00;99.90;;;;;;5050364;28;20053;-66
2022/11/04 07:16:53;;;;;;;144.52;53.20;;;11.00;99.90;;;;;;5035388;28;20087;-67
2022/11/04 07:19:37;;;;;;;118.82;52.00;;;11.10;99.90;;;;;;5053533;28;20024;-67
2022/11/04 07:22:03;;;;;;;167.05;63.15;;;11.10;99.90;;;;;;5059999;28;20032;-67
2022/11/04 07:24:29;;;;;;;109.25;47.85;;;11.30;99.90;;;;;;5035993;28;20107;-66
2022/11/04 07:27:19;;;;;;;92.18;46.80;;;11.40;99.90;;;;;;5053123;28;20021;-66
2022/11/04 07:29:48;;;;;;;93.18;44.97;;;11.40;99.90;;;;;;5050993;28;20534;-66
2022/11/04 07:32:14;;;;;;;122.55;51.78;;;11.40;99.90;;;;;;5053392;28;20067;-66
2022/11/04 07:34:40;;;;;;;102.82;47.38;;;11.50;99.90;;;;;;5053800;28;20021;-66
2022/11/04 07:37:06;;;;;;;118.38;51.45;;;11.70;99.90;;;;;;5053670;28;20102;-66
2022/11/04 07:39:32;;;;;;;142.80;52.47;;;11.70;99.90;;;;;;5049920;28;20109;-66
2022/11/04 07:41:58;;;;;;;107.05;44.63;;;11.90;99.90;;;;;;5043126;28;20455;-72
2022/11/04 07:44:24;;;;;;;100.78;44.78;;;12.00;99.90;;;;;;5053674;28;20032;-73
2022/11/04 07:46:49;;;;;;;102.25;47.17;;;12.10;99.90;;;;;;5054917;28;20020;-73
2022/11/04 07:49:16;;;;;;;98.30;47.42;;;12.20;99.90;;;;;;5046393;28;20060;-72
2022/11/04 07:51:42;;;;;;;96.78;45.90;;;12.30;99.90;;;;;;5050640;28;20421;-72
2022/11/04 07:54:07;;;;;;;98.05;45.83;;;12.30;99.90;;;;;;5053768;28;20083;-72
2022/11/04 07:56:33;;;;;;;90.60;45.08;;;12.40;99.90;;;;;;5051082;28;20021;-72
2022/11/04 07:58:59;;;;;;;96.63;46.28;;;12.40;99.90;;;;;;5043931;28;20033;-72
2022/11/04 08:01:25;;;;;;;141.07;62.75;;;12.60;99.90;;;;;;5057582;28;20044;-73
2022/11/04 08:03:51;;;;;;;142.45;65.43;;;12.80;99.90;;;;;;5025810;28;20037;-73
2022/11/04 08:06:19;;;;;;;129.07;57.05;;;13.00;99.90;;;;;;5053105;28;20048;-73
2022/11/04 08:08:47;;;;;;;104.32;52.65;;;13.00;99.90;;;;;;5054659;28;20021;-72
2022/11/04 08:11:18;;;;;;;125.53;56.97;;;13.10;99.90;;;;;;5052515;28;20025;-72
2022/11/04 08:13:45;;;;;;;114.30;54.65;;;13.10;99.90;;;;;;5048646;28;20079;-73
2022/11/04 08:16:14;;;;;;;123.97;55.40;;;13.20;99.90;;;;;;5051188;28;20029;-73
2022/11/04 08:18:41;;;;;;;115.18;50.53;;;13.40;99.90;;;;;;5045987;28;20092;-73
2022/11/04 08:21:08;;;;;;;123.38;58.15;;;13.50;99.90;;;;;;5054103;28;20060;-73
2022/11/04 08:23:34;;;;;;;139.00;63.47;;;13.50;99.90;;;;;;5053732;28;20108;-73
2022/11/04 08:26:00;;;;;;;128.40;57.78;;;13.60;99.90;;;;;;5052749;28;20032;-73
2022/11/04 08:28:28;;;;;;;118.38;57.38;;;13.70;99.90;;;;;;5053154;28;20561;-73
2022/11/04 08:31:03;;;;;;;185.43;71.85;;;13.70;99.90;;;;;;5052771;28;20037;-73
2022/11/04 08:33:31;;;;;;;138.05;67.93;;;13.80;99.90;;;;;;5054544;28;20107;-73
2022/11/04 08:36:02;;;;;;;148.85;66.30;;;13.80;99.90;;;;;;5055093;28;20461;-73
2022/11/04 08:38:28;;;;;;;;;;;13.80;99.90;;;;;;5056940;28;20547;-73
2022/11/04 08:40:58;;;;;;;126.13;58.45;;;13.80;99.90;;;;;;5055560;28;19916;-73
2022/11/04 08:43:25;;;;;;;119.65;56.13;;;13.80;99.90;;;;;;5055898;28;20025;-73
2022/11/04 08:45:52;;;;;;;100.03;49.03;;;13.80;99.90;;;;;;5038755;28;20471;-74
2022/11/04 08:48:18;;;;;;;113.47;52.55;;;13.90;99.90;;;;;;5055264;28;20029;-73
2022/11/04 08:50:57;;;;;;;103.22;50.78;;;14.00;99.90;;;;;;5052132;28;20048;-73
2022/11/04 08:53:30;;;;;;;91.28;47.15;;;13.90;99.90;;;;;;5058487;28;20104;-74
2022/11/04 08:56:25;;;;;;;96.90;48.47;;;13.90;99.90;;;;;;5059889;28;20043;-74
2022/11/04 08:58:53;;;;;;;110.13;51.58;;;13.90;99.90;;;;;;5056995;28;20120;-73
2022/11/04 09:01:21;;;;;;;116.40;55.15;;;13.70;99.90;;;;;;5055109;28;20339;-73
2022/11/04 09:03:48;;;;;;;106.80;53.35;;;13.90;99.90;;;;;;5054517;28;20432;-73
2022/11/04 09:06:26;;;;;;;116.22;53.53;;;13.80;99.90;;;;;;5056535;28;20076;-73
2022/11/04 09:09:00;;;;;;;120.43;53.00;;;14.00;99.90;;;;;;5049373;28;20029;-73
2022/11/04 09:11:30;;;;;;;107.78;52.35;;;14.00;99.90;;;;;;5053355;28;20524;-73
2022/11/04 09:14:00;;;;;;;106.67;53.00;;;14.00;99.90;;;;;;5053247;28;20240;-73
2022/11/04 09:16:28;;;;;;;142.40;56.23;;;13.90;99.90;;;;;;5048158;28;20017;-74
2022/11/04 09:18:55;;;;;;;122.53;56.60;;;14.00;99.90;;;;;;5034918;28;20040;-74
2022/11/04 09:21:21;;;;;;;139.80;65.50;;;14.10;99.90;;;;;;5042491;28;20060;-73
2022/11/04 09:23:47;;;;;;;151.23;73.40;;;14.30;99.90;;;;;;5055935;28;20071;-74
2022/11/04 09:26:14;;;;;;;152.43;70.97;;;14.30;99.90;;;;;;5053671;28;20058;-73
2022/11/04 09:28:41;;;;;;;148.68;69.85;;;14.30;99.90;;;;;;5050286;28;20091;-73
2022/11/04 09:31:11;;;;;;;145.40;68.43;;;14.60;99.90;;;;;;5055360;28;20375;-74
2022/11/04 09:33:37;;;;;;;151.10;70.65;;;14.70;99.90;;;;;;5055922;28;20507;-73
2022/11/04 09:36:04;;;;;;;138.98;66.40;;;14.90;99.90;;;;;;5053259;28;20036;-73
2022/11/04 09:38:30;;;;;;;141.07;65.25;;;15.10;99.90;;;;;;5052285;28;20035;-74
2022/11/04 09:40:57;;;;;;;133.88;66.85;;;15.30;99.90;;;;;;5052475;28;20039;-73
2022/11/04 09:43:28;;;;;;;134.43;66.15;;;15.30;99.90;;;;;;5060644;28;20032;-74
2022/11/04 09:45:55;;;;;;;154.88;69.05;;;15.60;99.90;;;;;;5048861;28;20036;-74
2022/11/04 09:48:25;;;;;;;146.55;69.43;;;15.70;99.90;;;;;;5046269;28;20025;-73
2022/11/04 09:50:56;;;;;;;127.83;67.77;;;15.80;99.90;;;;;;5038107;28;20036;-73
2022/11/04 09:53:34;;;;;;;155.15;70.50;;;16.00;99.90;;;;;;5054272;28;20029;-73
2022/11/04 09:56:15;;;;;;;150.57;68.47;;;16.10;99.90;;;;;;5048792;28;20044;-74
2022/11/04 09:58:42;;;;;;;139.25;61.85;;;16.20;99.90;;;;;;5045258;28;20088;-73
2022/11/04 10:01:17;;;;;;;130.20;62.70;;;16.40;99.90;;;;;;5042301;28;20029;-73
2022/11/04 10:03:56;;;;;;;131.98;60.78;;;16.60;99.90;;;;;;5021563;28;20099;-73
2022/11/04 10:06:39;;;;;;;131.77;64.65;;;16.70;99.90;;;;;;5035946;28;20030;-73
2022/11/04 10:09:33;;;;;;;153.90;71.15;;;16.90;99.90;;;;;;5035545;28;20101;-73
2022/11/04 10:12:27;;;;;;;164.20;73.55;;;17.10;99.90;;;;;;5035944;28;20036;-74
2022/11/04 10:15:11;;;;;;;142.80;69.63;;;17.20;99.90;;;;;;5022123;28;20030;-73
2022/11/04 10:17:37;;;;;;;130.20;66.03;;;17.30;99.90;;;;;;5031215;28;20057;-73
2022/11/04 10:20:57;;;;;;;133.50;63.65;;;17.40;99.90;;;;;;5017508;28;20034;-73
2022/11/04 10:23:33;;;;;;;139.00;70.13;;;17.60;99.90;;;;;;4973335;28;20031;-73
2022/11/04 10:26:18;;;;;;;135.38;66.60;;;17.60;99.90;;;;;;5035252;28;20504;-73
2022/11/04 10:29:35;;;;;;;122.93;64.07;;;17.80;99.90;;;;;;5031079;28;20029;-73
2022/11/04 10:32:11;;;;;;;129.82;61.10;;;17.80;99.90;;;;;;5009832;28;20038;-73
2022/11/04 10:35:03;;;;;;;112.60;47.78;;;17.90;99.90;;;;;;5035072;28;20037;-73
2022/11/04 10:37:30;;;;;;;106.10;46.47;;;18.00;99.90;;;;;;5033652;28;20034;-74
2022/11/04 10:40:35;;;;;;;112.97;47.00;;;18.10;99.90;;;;;;5034805;28;20060;-73
2022/11/04 10:43:04;;;;;;;148.82;65.75;;;18.30;99.90;;;;;;5023194;28;20038;-73
2022/11/04 10:45:36;;;;;;;142.52;68.97;;;18.30;99.90;;;;;;5034500;28;20033;-74
2022/11/04 10:48:18;;;;;;;146.90;68.93;;;18.30;99.90;;;;;;5035095;28;20033;-73
2022/11/04 10:50:56;;;;;;;134.48;67.93;;;18.20;99.90;;;;;;5026833;28;20056;-73
2022/11/04 10:53:24;;;;;;;126.47;62.83;;;18.30;99.90;;;;;;5035094;28;20030;-74
2022/11/04 10:55:58;;;;;;;133.63;63.60;;;18.30;99.90;;;;;;5033359;28;20022;-73
2022/11/04 10:58:29;;;;;;;134.43;60.10;;;18.30;99.90;;;;;;5033848;28;20032;-73
2022/11/04 11:00:56;;;;;;;143.43;60.53;;;18.40;99.90;;;;;;5033856;28;20034;-73
2022/11/04 11:03:32;;;;;;;130.90;55.20;;;18.40;99.90;;;;;;5047607;28;20076;-73
2022/11/04 11:06:16;;;;;;;113.57;51.05;;;18.50;99.90;;;;;;5036837;28;20030;-73
2022/11/04 11:08:45;;;;;;;122.75;47.70;;;18.50;99.90;;;;;;5033288;28;20024;-73
2022/11/04 11:11:14;;;;;;;114.60;45.95;;;18.50;99.80;;;;;;5054434;28;20024;-73
2022/11/04 11:13:42;;;;;;;107.22;43.20;;;18.60;99.40;;;;;;5054193;28;20029;-73
2022/11/04 11:16:19;;;;;;;116.85;46.58;;;18.60;98.70;;;;;;5051994;28;20025;-73
2022/11/04 11:19:11;;;;;;;72.57;31.55;;;18.60;98.70;;;;;;5054593;28;20060;-73
2022/11/04 11:21:49;;;;;;;78.22;30.80;;;18.60;95.80;;;;;;5067688;28;20044;-74
2022/11/04 11:24:21;;;;;;;83.72;33.72;;;18.60;95.50;;;;;;5075460;28;20031;-73
2022/11/04 11:26:51;;;;;;;89.05;36.83;;;18.70;95.30;;;;;;5065029;28;20059;-74
2022/11/04 11:29:28;;;;;;;88.15;26.05;;;18.60;97.20;;;;;;5051581;28;20032;-73
2022/11/04 11:31:55;;;;;;;87.50;26.60;;;18.50;94.90;;;;;;5061461;28;20158;-73
2022/11/04 11:34:25;;;;;;;64.50;22.23;;;18.50;94.70;;;;;;5040584;28;20442;-73
2022/11/04 11:36:56;;;;;;;64.53;21.57;;;18.50;94.30;;;;;;5049170;28;20057;-73
2022/11/04 11:39:27;;;;;;;63.35;21.90;;;18.40;95.70;;;;;;5054353;28;20036;-73
2022/11/04 11:42:05;;;;;;;41.95;21.83;;;18.30;97.50;;;;;;5054232;28;20033;-73
2022/11/04 11:44:46;;;;;;;38.10;19.40;;;18.20;98.10;;;;;;5052678;28;20025;-73
2022/11/04 11:47:35;;;;;;;52.67;21.30;;;18.10;98.10;;;;;;5032496;28;20033;-73
2022/11/04 11:50:13;;;;;;;47.08;20.60;;;18.10;99.60;;;;;;5053855;28;20029;-73
2022/11/04 11:52:41;;;;;;;44.60;22.75;;;18.00;99.90;;;;;;5044238;28;20049;-73
2022/11/04 11:55:19;;;;;;;44.20;22.08;;;17.90;99.90;;;;;;5034221;28;20040;-73
2022/11/04 11:58:14;;;;;;;46.30;19.42;;;17.90;99.90;;;;;;5044367;28;20107;-73
2022/11/04 12:01:09;;;;;;;39.10;18.85;;;17.90;99.90;;;;;;5052883;28;20021;-73
2022/11/04 12:03:42;;;;;;;35.78;18.42;;;17.80;99.90;;;;;;5041416;28;20123;-73
2022/11/04 12:06:15;;;;;;;30.98;18.02;;;17.80;99.90;;;;;;5056417;28;20562;-72
2022/11/04 12:08:56;;;;;;;32.45;16.45;;;17.70;99.90;;;;;;5055174;28;20120;-73
2022/11/04 12:11:53;;;;;;;34.00;16.63;;;17.60;99.90;;;;;;5057536;28;20106;-73
2022/11/04 12:15:02;;;;;;;36.53;17.52;;;17.60;99.90;;;;;;5048950;28;20021;-73
2022/11/04 12:17:55;;;;;;;47.78;25.58;;;17.50;99.90;;;;;;4938988;29;20175;-73
2022/11/04 12:20:26;;;;;;;54.53;28.70;;;17.40;99.90;;;;;;5050768;28;20047;-73
2022/11/04 12:23:22;;;;;;;57.15;30.92;;;17.30;99.90;;;;;;5056930;28;20052;-73
2022/11/04 12:26:02;;;;;;;60.03;31.85;;;17.30;99.90;;;;;;5054732;28;20033;-73
2022/11/04 12:28:52;;;;;;;65.15;31.20;;;17.30;99.90;;;;;;5051719;28;20119;-72
2022/11/04 12:31:42;;;;;;;75.93;41.10;;;17.20;99.90;;;;;;5054518;28;20083;-72
2022/11/04 12:34:30;;;;;;;65.70;39.15;;;17.10;99.90;;;;;;5055739;28;20087;-72
2022/11/04 12:36:56;;;;;;;70.10;39.83;;;17.10;99.90;;;;;;5055440;28;20106;-72
2022/11/04 12:39:59;;;;;;;69.10;41.25;;;17.10;99.90;;;;;;5048964;28;20033;-72
2022/11/04 12:42:53;;;;;;;85.85;48.08;;;17.10;99.90;;;;;;5059070;28;20028;-72
2022/11/04 12:46:04;;;;;;;80.07;44.88;;;17.00;99.90;;;;;;5051430;28;20108;-72
2022/11/04 12:49:08;;;;;;;80.47;46.40;;;17.00;99.90;;;;;;5049727;28;20045;-72
2022/11/04 12:51:51;;;;;;;87.97;46.38;;;17.00;99.90;;;;;;5010083;28;20036;-72
2022/11/04 12:54:22;;;;;;;72.43;40.53;;;17.00;99.90;;;;;;5056910;28;20082;-74
2022/11/04 12:57:02;;;;;;;82.63;44.25;;;17.00;99.90;;;;;;5056034;28;20052;-74
2022/11/04 13:00:00;;;;;;;146.45;70.93;;;16.90;99.90;;;;;;5053764;28;20497;-74
2022/11/04 13:03:07;;;;;;;143.73;69.47;;;17.00;99.90;;;;;;5054903;28;20151;-73
2022/11/04 13:05:46;;;;;;;136.45;68.07;;;17.10;99.90;;;;;;5019964;28;20082;-73
2022/11/04 13:08:22;;;;;;;155.25;78.03;;;17.10;99.90;;;;;;5054147;28;20036;-73
2022/11/04 13:11:21;;;;;;;194.65;103.30;;;17.10;99.90;;;;;;5057025;28;20024;-73
2022/11/04 13:14:19;;;;;;;105.10;53.65;;;17.10;99.90;;;;;;5067252;28;20028;-73
2022/11/04 13:16:49;;;;;;;71.85;39.03;;;17.10;99.90;;;;;;5062876;28;20079;-73
2022/11/04 13:19:30;;;;;;;72.63;36.60;;;17.20;99.90;;;;;;5056178;28;20026;-73
2022/11/04 13:22:06;;;;;;;61.58;32.58;;;17.10;99.90;;;;;;5056352;28;20036;-73
2022/11/04 13:24:39;;;;;;;60.35;32.13;;;17.10;99.90;;;;;;5064538;28;20020;-73
2022/11/04 13:27:34;;;;;;;62.33;31.48;;;17.00;99.90;;;;;;5060456;28;20037;-73